Time,TemperatureF,DewpointF,PressureIn,WindDirection,WindDirectionDegrees,WindSpeedMPH,WindSpeedGustMPH,Humidity,HourlyPrecipIn,Conditions,Clouds,dailyrainin,SoftwareType,DateUTC
2013-08-03 00:00:00,73.5,71.3,29.78,East,82,0.0,0.0,93,0.00,,,0.25,Custom v0.1,2013-08-03 05:00:00,
2013-08-03 00:05:00,73.5,71.6,29.78,East,80,0.0,0.0,94,0.00,,,0.00,Custom v0.1,2013-08-03 05:05:00,
2013-08-03 00:10:00,73.7,71.8,29.78,East,80,0.0,0.0,94,0.00,,,0.00,Custom v0.1,2013-08-03 05:10:00,
2013-08-03 00:15:00,73.9,71.7,29.78,East,80,0.0,0.0,93,0.00,,,0.00,Custom v0.1,2013-08-03 05:15:00,
2013-08-03 00:20:00,73.9,71.7,29.79,East,80,0.0,0.0,93,0.00,,,0.00,Custom v0.1,2013-08-03 05:20:00,
2013-08-03 00:25:00,74.0,71.8,29.79,East,82,0.0,0.0,93,0.00,,,0.00,Custom v0.1,2013-08-03 05:25:00,
2013-08-03 00:30:00,74.0,71.5,29.79,East,82,0.0,0.0,92,0.00,,,0.00,Custom v0.1,2013-08-03 05:30:00,
2013-08-03 00:35:00,74.2,71.7,29.79,East,80,0.0,0.0,92,0.00,,,0.00,Custom v0.1,2013-08-03 05:35:00,
2013-08-03 00:40:00,74.2,71.7,29.79,East,80,0.0,0.0,92,0.00,,,0.00,Custom v0.1,2013-08-03 05:40:00,
2013-08-03 00:45:00,74.2,71.7,29.79,East,82,0.0,0.0,92,0.00,,,0.00,Custom v0.1,2013-08-03 05:45:00,
2013-08-03 00:50:00,74.2,71.7,29.80,East,82,0.0,0.0,92,0.00,,,0.00,Custom v0.1,2013-08-03 05:50:00,
2013-08-03 00:55:00,74.4,71.9,29.80,East,80,0.0,0.0,92,0.00,,,0.00,Custom v0.1,2013-08-03 05:55:00,
2013-08-03 00:59:00,74.4,71.9,29.80,East,80,0.0,0.0,92,0.00,,,0.00,Custom v0.1,2013-08-03 05:59:00,
2013-08-03 01:05:00,74.4,71.9,29.81,East,80,0.0,0.0,92,0.00,,,0.00,Custom v0.1,2013-08-03 06:05:00,
2013-08-03 01:10:00,74.4,71.9,29.81,East,80,0.0,0.0,92,0.00,,,0.00,Custom v0.1,2013-08-03 06:10:00,
2013-08-03 01:14:00,74.4,71.9,29.81,East,80,0.0,0.0,92,0.00,,,0.00,Custom v0.1,2013-08-03 06:14:00,
2013-08-03 01:25:00,74.2,71.7,29.81,East,80,0.0,0.0,92,0.00,,,0.00,Custom v0.1,2013-08-03 06:25:00,
2013-08-03 01:35:00,74.2,71.7,29.80,East,80,0.0,0.0,92,0.00,,,0.00,Custom v0.1,2013-08-03 06:35:00,
2013-08-03 01:50:00,73.9,71.4,29.79,East,80,0.0,0.0,92,0.00,,,0.00,Custom v0.1,2013-08-03 06:50:00,
2013-08-03 02:00:00,73.9,71.4,29.79,East,80,0.0,0.0,92,0.00,,,0.00,Custom v0.1,2013-08-03 07:00:00,
2013-08-03 02:10:00,73.7,71.5,29.78,East,80,0.0,0.0,93,0.00,,,0.00,Custom v0.1,2013-08-03 07:10:00,
2013-08-03 02:15:00,73.5,71.3,29.78,East,80,0.0,0.0,93,0.00,,,0.00,Custom v0.1,2013-08-03 07:15:00,
2013-08-03 02:25:00,73.5,71.3,29.77,East,80,0.0,0.0,93,0.00,,,0.00,Custom v0.1,2013-08-03 07:25:00,
2013-08-03 02:35:00,73.3,71.4,29.76,North,358,0.0,0.0,94,0.00,,,0.00,Custom v0.1,2013-08-03 07:35:00,
2013-08-03 02:40:00,73.2,71.3,29.76,East,96,0.0,0.0,94,0.00,,,0.00,Custom v0.1,2013-08-03 07:40:00,
2013-08-03 02:44:00,73.2,71.3,29.76,East,94,0.0,0.0,94,0.00,,,0.00,Custom v0.1,2013-08-03 07:44:00,
2013-08-03 02:50:00,73.0,71.1,29.77,East,100,0.0,0.0,94,0.00,,,0.00,Custom v0.1,2013-08-03 07:50:00,
2013-08-03 02:55:00,72.8,70.9,29.77,East,89,0.0,0.0,94,0.00,,,0.00,Custom v0.1,2013-08-03 07:55:00,
2013-08-03 02:59:00,72.8,70.9,29.77,East,87,0.0,0.0,94,0.00,,,0.00,Custom v0.1,2013-08-03 07:59:00,
2013-08-03 03:04:00,72.7,70.8,29.78,ESE,117,3.0,3.0,94,0.00,,,0.00,Custom v0.1,2013-08-03 08:04:00,
2013-08-03 03:10:00,72.7,70.8,29.78,East,90,0.0,0.0,94,0.00,,,0.00,Custom v0.1,2013-08-03 08:10:00,
2013-08-03 03:15:00,72.5,70.6,29.78,East,83,1.0,1.0,94,0.00,,,0.00,Custom v0.1,2013-08-03 08:15:00,
2013-08-03 03:19:00,72.5,70.6,29.75,ESE,114,0.0,0.0,94,0.00,,,0.00,Custom v0.1,2013-08-03 08:19:00,
2013-08-03 03:25:00,72.3,70.4,29.75,East,93,0.0,0.0,94,0.00,,,0.00,Custom v0.1,2013-08-03 08:25:00,
2013-08-03 03:30:00,72.3,70.4,29.75,NE,53,3.0,5.0,94,0.00,,,0.00,Custom v0.1,2013-08-03 08:30:00,
2013-08-03 03:35:00,72.1,70.2,29.75,ENE,70,0.0,0.0,94,0.00,,,0.00,Custom v0.1,2013-08-03 08:35:00,
2013-08-03 03:40:00,72.1,70.2,29.75,SE,137,0.0,0.0,94,0.00,,,0.00,Custom v0.1,2013-08-03 08:40:00,
2013-08-03 03:45:00,72.1,69.9,29.75,ENE,66,0.0,0.0,93,0.00,,,0.00,Custom v0.1,2013-08-03 08:45:00,
2013-08-03 03:49:00,72.1,69.9,29.78,ENE,76,0.0,0.0,93,0.00,,,0.00,Custom v0.1,2013-08-03 08:49:00,
2013-08-03 03:55:00,72.1,69.9,29.78,East,87,0.0,0.0,93,0.00,,,0.00,Custom v0.1,2013-08-03 08:55:00,
2013-08-03 04:00:00,72.1,69.6,29.78,East,99,0.0,0.0,92,0.00,,,0.00,Custom v0.1,2013-08-03 09:00:00,
2013-08-03 04:05:00,72.3,69.8,29.80,East,89,0.0,0.0,92,0.00,,,0.00,Custom v0.1,2013-08-03 09:05:00,
2013-08-03 04:10:00,72.3,69.8,29.80,ENE,72,0.0,0.0,92,0.00,,,0.00,Custom v0.1,2013-08-03 09:10:00,
2013-08-03 04:15:00,72.1,69.6,29.80,ESE,113,1.0,1.0,92,0.00,,,0.00,Custom v0.1,2013-08-03 09:15:00,
2013-08-03 04:20:00,72.1,69.6,29.80,East,94,0.0,3.0,92,0.00,,,0.00,Custom v0.1,2013-08-03 09:20:00,
2013-08-03 04:25:00,72.1,69.6,29.80,East,83,0.0,0.0,92,0.00,,,0.00,Custom v0.1,2013-08-03 09:25:00,
2013-08-03 04:30:00,72.0,69.5,29.80,NNW,333,0.0,0.0,92,0.00,,,0.00,Custom v0.1,2013-08-03 09:30:00,
2013-08-03 04:35:00,72.0,69.5,29.80,NNW,332,0.0,0.0,92,0.00,,,0.00,Custom v0.1,2013-08-03 09:35:00,
2013-08-03 04:39:00,72.0,69.5,29.80,North,4,0.0,0.0,92,0.00,,,0.00,Custom v0.1,2013-08-03 09:39:00,
2013-08-03 04:44:00,71.8,69.3,29.80,NW,319,0.0,0.0,92,0.00,,,0.00,Custom v0.1,2013-08-03 09:44:00,
2013-08-03 04:50:00,71.8,69.3,29.83,West,281,2.0,3.0,92,0.00,,,0.00,Custom v0.1,2013-08-03 09:50:00,
2013-08-03 05:00:00,71.8,69.3,29.83,West,281,0.0,0.0,92,0.00,,,0.00,Custom v0.1,2013-08-03 10:00:00,
2013-08-03 05:05:00,71.8,69.3,29.83,West,281,0.0,0.0,92,0.00,,,0.00,Custom v0.1,2013-08-03 10:05:00,
2013-08-03 05:10:00,71.8,69.3,29.83,West,281,0.0,0.0,92,0.00,,,0.00,Custom v0.1,2013-08-03 10:10:00,
2013-08-03 05:15:00,71.8,69.3,29.83,ESE,103,3.0,3.0,92,0.00,,,0.00,Custom v0.1,2013-08-03 10:15:00,
2013-08-03 05:20:00,71.8,69.3,29.83,East,93,0.0,0.0,92,0.00,,,0.00,Custom v0.1,2013-08-03 10:20:00,
2013-08-03 05:25:00,71.6,69.1,29.83,East,92,0.0,0.0,92,0.00,,,0.00,Custom v0.1,2013-08-03 10:25:00,
2013-08-03 05:30:00,71.6,69.1,29.83,East,97,2.0,3.0,92,0.00,,,0.00,Custom v0.1,2013-08-03 10:30:00,
2013-08-03 05:35:00,71.6,69.1,29.84,East,97,0.0,0.0,92,0.00,,,0.00,Custom v0.1,2013-08-03 10:35:00,
2013-08-03 05:40:00,71.6,69.1,29.84,NNE,12,0.0,0.0,92,0.00,,,0.00,Custom v0.1,2013-08-03 10:40:00,
2013-08-03 05:45:00,71.6,69.1,29.84,East,101,0.0,0.0,92,0.00,,,0.00,Custom v0.1,2013-08-03 10:45:00,
2013-08-03 05:50:00,71.5,69.0,29.83,ENE,72,0.0,0.0,92,0.00,,,0.00,Custom v0.1,2013-08-03 10:50:00,
2013-08-03 05:55:00,71.5,69.0,29.83,ENE,73,0.0,0.0,92,0.00,,,0.00,Custom v0.1,2013-08-03 10:55:00,
2013-08-03 06:00:00,71.5,69.0,29.83,East,97,0.0,0.0,92,0.00,,,0.00,Custom v0.1,2013-08-03 11:00:00,
2013-08-03 06:05:00,71.5,69.3,29.83,East,96,0.0,0.0,93,0.00,,,0.00,Custom v0.1,2013-08-03 11:05:00,
2013-08-03 06:10:00,71.3,69.1,29.83,East,94,0.0,0.0,93,0.00,,,0.00,Custom v0.1,2013-08-03 11:10:00,
2013-08-03 06:15:00,71.3,69.1,29.83,East,94,0.0,0.0,93,0.00,,,0.00,Custom v0.1,2013-08-03 11:15:00,
2013-08-03 06:20:00,71.3,69.1,29.84,East,94,0.0,0.0,93,0.00,,,0.00,Custom v0.1,2013-08-03 11:20:00,
2013-08-03 06:25:00,71.3,69.1,29.84,East,97,0.0,0.0,93,0.00,,,0.00,Custom v0.1,2013-08-03 11:25:00,
2013-08-03 06:30:00,71.3,69.1,29.84,WSW,252,0.0,0.0,93,0.00,,,0.00,Custom v0.1,2013-08-03 11:30:00,
2013-08-03 06:34:00,71.3,69.1,29.85,NW,324,0.0,0.0,93,0.00,,,0.00,Custom v0.1,2013-08-03 11:34:00,
2013-08-03 06:39:00,71.3,69.1,29.85,ENE,77,0.0,0.0,93,0.00,,,0.00,Custom v0.1,2013-08-03 11:39:00,
2013-08-03 06:45:00,71.3,69.1,29.85,ENE,77,0.0,0.0,93,0.00,,,0.00,Custom v0.1,2013-08-03 11:45:00,
2013-08-03 06:50:00,71.3,69.1,29.86,ENE,72,0.0,0.0,93,0.00,,,0.00,Custom v0.1,2013-08-03 11:50:00,
2013-08-03 06:55:00,71.3,69.1,29.86,NW,308,0.0,0.0,93,0.00,,,0.00,Custom v0.1,2013-08-03 11:55:00,
2013-08-03 07:00:00,71.3,69.1,29.86,ENE,59,0.0,0.0,93,0.00,,,0.00,Custom v0.1,2013-08-03 12:00:00,
2013-08-03 07:05:00,71.3,69.1,29.87,East,97,7.0,7.0,93,0.00,,,0.00,Custom v0.1,2013-08-03 12:05:00,
2013-08-03 07:10:00,71.3,69.1,29.87,East,99,0.0,0.0,93,0.00,,,0.00,Custom v0.1,2013-08-03 12:10:00,
2013-08-03 07:15:00,71.3,69.1,29.87,East,96,0.0,0.0,93,0.00,,,0.00,Custom v0.1,2013-08-03 12:15:00,
2013-08-03 07:25:00,71.5,69.3,29.88,ENE,59,0.0,0.0,93,0.00,,,0.00,Custom v0.1,2013-08-03 12:25:00,
2013-08-03 07:30:00,71.5,69.3,29.88,ENE,76,0.0,0.0,93,0.00,,,0.00,Custom v0.1,2013-08-03 12:30:00,
2013-08-03 07:35:00,71.5,69.3,29.88,ENE,77,0.0,0.0,93,0.00,,,0.00,Custom v0.1,2013-08-03 12:35:00,
2013-08-03 07:40:00,71.5,69.3,29.88,ENE,76,0.0,0.0,93,0.00,,,0.00,Custom v0.1,2013-08-03 12:40:00,
2013-08-03 07:45:00,71.5,69.3,29.88,East,94,0.0,0.0,93,0.00,,,0.00,Custom v0.1,2013-08-03 12:45:00,
2013-08-03 07:50:00,71.6,69.4,29.88,East,96,0.0,0.0,93,0.00,,,0.00,Custom v0.1,2013-08-03 12:50:00,
2013-08-03 07:55:00,71.5,69.0,29.88,East,89,0.0,0.0,92,0.00,,,0.00,Custom v0.1,2013-08-03 12:55:00,
2013-08-03 08:00:00,71.6,69.1,29.88,East,83,0.0,3.0,92,0.00,,,0.00,Custom v0.1,2013-08-03 13:00:00,
2013-08-03 08:05:00,71.6,69.1,29.88,East,89,0.0,0.0,92,0.00,,,0.00,Custom v0.1,2013-08-03 13:05:00,
2013-08-03 08:09:00,71.8,69.0,29.88,ESE,110,4.0,5.0,91,0.00,,,0.00,Custom v0.1,2013-08-03 13:09:00,
2013-08-03 08:15:00,71.8,68.7,29.88,ESE,103,1.0,2.0,90,0.00,,,0.00,Custom v0.1,2013-08-03 13:15:00,
2013-08-03 08:20:00,72.0,68.9,29.90,ENE,76,0.0,0.0,90,0.00,,,0.00,Custom v0.1,2013-08-03 13:20:00,
2013-08-03 08:24:00,72.1,69.0,29.90,East,79,0.0,0.0,90,0.00,,,0.00,Custom v0.1,2013-08-03 13:24:00,
2013-08-03 08:30:00,72.1,68.7,29.90,ENE,77,0.0,0.0,89,0.00,,,0.00,Custom v0.1,2013-08-03 13:30:00,
2013-08-03 08:35:00,72.1,68.7,29.90,ENE,70,0.0,0.0,89,0.00,,,0.00,Custom v0.1,2013-08-03 13:35:00,
2013-08-03 08:40:00,72.1,69.0,29.90,East,84,0.0,0.0,90,0.00,,,0.00,Custom v0.1,2013-08-03 13:40:00,
2013-08-03 08:49:00,72.1,68.7,29.91,NE,53,0.0,0.0,89,0.00,,,0.00,Custom v0.1,2013-08-03 13:49:00,
2013-08-03 08:54:00,72.1,68.7,29.91,ENE,62,0.0,0.0,89,0.00,,,0.00,Custom v0.1,2013-08-03 13:54:00,
2013-08-03 09:00:00,72.3,68.9,29.91,ENE,62,0.0,0.0,89,0.00,,,0.00,Custom v0.1,2013-08-03 14:00:00,
2013-08-03 09:05:00,72.3,68.9,29.91,East,87,2.0,6.0,89,0.00,,,0.00,Custom v0.1,2013-08-03 14:05:00,
2013-08-03 09:15:00,72.5,69.1,29.91,East,96,0.0,0.0,89,0.00,,,0.00,Custom v0.1,2013-08-03 14:15:00,
2013-08-03 09:20:00,72.8,69.0,29.91,East,90,6.0,6.0,88,0.00,,,0.00,Custom v0.1,2013-08-03 14:20:00,
2013-08-03 09:24:00,72.8,69.0,29.91,East,99,0.0,0.0,88,0.00,,,0.00,Custom v0.1,2013-08-03 14:24:00,
2013-08-03 09:30:00,72.8,68.7,29.91,East,84,5.0,5.0,87,0.00,,,0.00,Custom v0.1,2013-08-03 14:30:00,
2013-08-03 09:34:00,73.0,68.6,29.90,East,82,11.0,12.0,86,0.00,,,0.00,Custom v0.1,2013-08-03 14:34:00,
2013-08-03 09:40:00,73.3,68.6,29.90,ESE,103,2.0,3.0,85,0.00,,,0.00,Custom v0.1,2013-08-03 14:40:00,
2013-08-03 09:45:00,73.7,68.6,29.90,East,93,0.0,5.0,84,0.00,,,0.00,Custom v0.1,2013-08-03 14:45:00,
2013-08-03 09:49:00,74.0,68.9,29.90,North,4,0.0,0.0,84,0.00,,,0.00,Custom v0.1,2013-08-03 14:49:00,
2013-08-03 09:54:00,74.7,69.3,29.90,ENE,72,5.0,7.0,83,0.00,,,0.00,Custom v0.1,2013-08-03 14:54:00,
2013-08-03 10:00:00,74.9,69.4,29.90,East,80,0.0,0.0,83,0.00,,,0.00,Custom v0.1,2013-08-03 15:00:00,
2013-08-03 10:05:00,75.3,69.2,29.91,East,89,0.0,2.0,81,0.00,,,0.00,Custom v0.1,2013-08-03 15:05:00,
2013-08-03 10:09:00,75.3,68.8,29.91,ESE,116,6.0,9.0,80,0.00,,,0.00,Custom v0.1,2013-08-03 15:09:00,
2013-08-03 10:15:00,75.3,68.8,29.91,ESE,106,7.0,7.0,80,0.00,,,0.00,Custom v0.1,2013-08-03 15:15:00,
2013-08-03 10:20:00,75.4,68.9,29.92,East,96,0.0,5.0,80,0.00,,,0.00,Custom v0.1,2013-08-03 15:20:00,
2013-08-03 10:24:00,75.6,69.1,29.92,East,86,0.0,0.0,80,0.00,,,0.00,Custom v0.1,2013-08-03 15:24:00,
2013-08-03 10:34:00,76.7,70.2,29.92,ESE,116,5.0,6.0,80,0.00,,,0.00,Custom v0.1,2013-08-03 15:34:00,
2013-08-03 10:40:00,76.7,70.2,29.92,ESE,103,0.0,0.0,80,0.00,,,0.00,Custom v0.1,2013-08-03 15:40:00,
2013-08-03 10:45:00,76.8,69.9,29.92,East,99,6.0,6.0,79,0.00,,,0.00,Custom v0.1,2013-08-03 15:45:00,
2013-08-03 10:50:00,77.0,69.7,29.93,ENE,65,0.0,0.0,78,0.00,,,0.00,Custom v0.1,2013-08-03 15:50:00,
2013-08-03 10:55:00,77.0,70.5,29.93,East,90,5.0,5.0,80,0.00,,,0.00,Custom v0.1,2013-08-03 15:55:00,
2013-08-03 11:00:00,76.8,69.2,29.93,East,86,6.0,6.0,77,0.00,,,0.00,Custom v0.1,2013-08-03 16:00:00,
2013-08-03 11:05:00,76.8,69.5,29.93,NE,44,1.0,2.0,78,0.00,,,0.00,Custom v0.1,2013-08-03 16:05:00,
2013-08-03 11:10:00,76.8,69.5,29.93,East,86,3.0,4.0,78,0.00,,,0.00,Custom v0.1,2013-08-03 16:10:00,
2013-08-03 11:15:00,77.0,70.1,29.93,East,87,0.0,0.0,79,0.00,,,0.00,Custom v0.1,2013-08-03 16:15:00,
2013-08-03 11:20:00,77.0,69.7,29.93,East,87,0.0,0.0,78,0.00,,,0.00,Custom v0.1,2013-08-03 16:20:00,
2013-08-03 11:24:00,77.0,70.1,29.93,East,83,0.0,0.0,79,0.00,,,0.00,Custom v0.1,2013-08-03 16:24:00,
2013-08-03 11:30:00,77.0,69.7,29.93,ESE,107,1.0,1.0,78,0.00,,,0.00,Custom v0.1,2013-08-03 16:30:00,
2013-08-03 11:35:00,77.2,69.9,29.94,ESE,106,0.0,0.0,78,0.00,,,0.00,Custom v0.1,2013-08-03 16:35:00,
2013-08-03 11:40:00,77.2,70.3,29.94,East,93,0.0,0.0,79,0.00,,,0.00,Custom v0.1,2013-08-03 16:40:00,
2013-08-03 11:45:00,77.2,70.7,29.94,East,93,0.0,0.0,80,0.00,,,0.00,Custom v0.1,2013-08-03 16:45:00,
2013-08-03 11:50:00,77.4,70.5,29.94,East,93,3.0,3.0,79,0.00,,,0.00,Custom v0.1,2013-08-03 16:50:00,
2013-08-03 11:55:00,77.4,70.9,29.94,East,93,0.0,0.0,80,0.00,,,0.00,Custom v0.1,2013-08-03 16:55:00,
2013-08-03 12:00:00,77.4,70.9,29.94,East,93,0.0,0.0,80,0.00,,,0.00,Custom v0.1,2013-08-03 17:00:00,
2013-08-03 12:05:00,77.6,71.0,29.93,East,93,0.0,0.0,80,0.00,,,0.00,Custom v0.1,2013-08-03 17:05:00,
2013-08-03 12:10:00,77.4,70.5,29.93,East,93,5.0,6.0,79,0.00,,,0.00,Custom v0.1,2013-08-03 17:10:00,
2013-08-03 12:20:00,77.2,70.7,29.94,East,96,0.0,0.0,80,0.00,,,0.00,Custom v0.1,2013-08-03 17:20:00,
2013-08-03 12:25:00,77.4,70.9,29.94,East,96,0.0,0.0,80,0.00,,,0.00,Custom v0.1,2013-08-03 17:25:00,
2013-08-03 12:30:00,77.4,70.1,29.94,East,92,0.0,1.0,78,0.00,,,0.00,Custom v0.1,2013-08-03 17:30:00,
2013-08-03 12:35:00,77.2,70.7,29.94,East,93,0.0,0.0,80,0.00,,,0.00,Custom v0.1,2013-08-03 17:35:00,
2013-08-03 12:39:00,77.4,71.6,29.94,East,93,0.0,0.0,82,0.00,,,0.00,Custom v0.1,2013-08-03 17:39:00,
2013-08-03 12:45:00,77.0,70.1,29.94,East,90,0.0,0.0,79,0.00,,,0.00,Custom v0.1,2013-08-03 17:45:00,
2013-08-03 12:50:00,77.0,70.8,29.94,East,90,0.0,0.0,81,0.00,,,0.00,Custom v0.1,2013-08-03 17:50:00,
2013-08-03 12:55:00,77.2,70.7,29.94,East,90,0.0,0.0,80,0.00,,,0.00,Custom v0.1,2013-08-03 17:55:00,
2013-08-03 12:59:00,77.4,70.9,29.94,East,90,0.0,0.0,80,0.00,,,0.00,Custom v0.1,2013-08-03 17:59:00,
2013-08-03 13:05:00,77.7,71.1,29.94,East,93,0.0,1.0,80,0.00,,,0.00,Custom v0.1,2013-08-03 18:05:00,
2013-08-03 13:10:00,78.1,71.5,29.94,East,93,0.0,0.0,80,0.00,,,0.00,Custom v0.1,2013-08-03 18:10:00,
2013-08-03 13:15:00,78.5,70.8,29.94,East,94,0.0,0.0,77,0.00,,,0.00,Custom v0.1,2013-08-03 18:15:00,
2013-08-03 13:20:00,78.5,71.2,29.93,East,93,0.0,0.0,78,0.00,,,0.00,Custom v0.1,2013-08-03 18:20:00,
2013-08-03 13:25:00,78.5,70.8,29.93,East,93,0.0,0.0,77,0.00,,,0.00,Custom v0.1,2013-08-03 18:25:00,
2013-08-03 13:30:00,78.6,71.3,29.93,East,93,0.0,0.0,78,0.00,,,0.00,Custom v0.1,2013-08-03 18:30:00,
2013-08-03 13:35:00,78.8,70.8,29.93,East,93,0.0,0.0,76,0.00,,,0.00,Custom v0.1,2013-08-03 18:35:00,
2013-08-03 13:44:00,79.6,72.3,29.93,East,93,0.0,0.0,78,0.00,,,0.00,Custom v0.1,2013-08-03 18:44:00,
2013-08-03 13:49:00,79.8,71.7,29.93,SE,132,6.0,6.0,76,0.00,,,0.00,Custom v0.1,2013-08-03 18:49:00,
2013-08-03 13:55:00,79.8,71.7,29.93,East,82,0.0,0.0,76,0.00,,,0.00,Custom v0.1,2013-08-03 18:55:00,
2013-08-03 14:00:00,79.9,71.1,29.93,NE,38,0.0,0.0,74,0.00,,,0.00,Custom v0.1,2013-08-03 19:00:00,
2013-08-03 14:10:00,79.9,71.8,29.93,East,83,0.0,0.0,76,0.00,,,0.00,Custom v0.1,2013-08-03 19:10:00,
2013-08-03 14:15:00,80.3,71.8,29.93,East,89,5.0,6.0,75,0.00,,,0.00,Custom v0.1,2013-08-03 19:15:00,
2013-08-03 14:20:00,80.1,72.0,29.92,East,100,0.0,0.0,76,0.00,,,0.00,Custom v0.1,2013-08-03 19:20:00,
2013-08-03 14:25:00,80.5,71.2,29.92,East,84,0.0,0.0,73,0.00,,,0.00,Custom v0.1,2013-08-03 19:25:00,
2013-08-03 14:29:00,81.2,72.3,29.92,NNW,329,0.0,0.0,74,0.00,,,0.00,Custom v0.1,2013-08-03 19:29:00,
2013-08-03 14:35:00,81.4,71.7,29.92,East,90,0.0,0.0,72,0.00,,,0.00,Custom v0.1,2013-08-03 19:35:00,
2013-08-03 14:40:00,81.1,71.8,29.92,ENE,70,0.0,0.0,73,0.00,,,0.00,Custom v0.1,2013-08-03 19:40:00,
2013-08-03 14:45:00,81.1,72.2,29.92,NW,326,0.0,0.0,74,0.00,,,0.00,Custom v0.1,2013-08-03 19:45:00,
2013-08-03 14:49:00,81.4,71.7,29.92,ENE,76,0.0,0.0,72,0.00,,,0.00,Custom v0.1,2013-08-03 19:49:00,
2013-08-03 14:55:00,82.0,72.3,29.92,ENE,72,0.0,0.0,72,0.00,,,0.00,Custom v0.1,2013-08-03 19:55:00,
2013-08-03 15:00:00,82.2,72.1,29.92,East,87,0.0,2.0,71,0.00,,,0.00,Custom v0.1,2013-08-03 20:00:00,
2013-08-03 15:05:00,81.8,72.1,29.92,ENE,69,0.0,1.0,72,0.00,,,0.00,Custom v0.1,2013-08-03 20:05:00,
2013-08-03 15:10:00,82.0,72.3,29.92,East,89,8.0,8.0,72,0.00,,,0.00,Custom v0.1,2013-08-03 20:10:00,
2013-08-03 15:15:00,81.8,72.1,29.92,East,97,5.0,5.0,72,0.00,,,0.00,Custom v0.1,2013-08-03 20:15:00,
2013-08-03 15:20:00,82.0,72.3,29.92,ESE,106,0.0,0.0,72,0.00,,,0.00,Custom v0.1,2013-08-03 20:20:00,
2013-08-03 15:25:00,82.4,73.9,29.92,East,84,0.0,3.0,75,0.00,,,0.00,Custom v0.1,2013-08-03 20:25:00,
2013-08-03 15:35:00,82.6,71.6,29.91,East,79,4.0,4.0,69,0.00,,,0.00,Custom v0.1,2013-08-03 20:35:00,
2013-08-03 15:40:00,82.2,72.1,29.91,East,80,0.0,0.0,71,0.00,,,0.00,Custom v0.1,2013-08-03 20:40:00,
2013-08-03 15:45:00,82.6,72.1,29.91,East,92,0.0,0.0,70,0.00,,,0.00,Custom v0.1,2013-08-03 20:45:00,
2013-08-03 15:55:00,83.8,72.4,29.91,NNE,24,0.0,0.0,68,0.00,,,0.00,Custom v0.1,2013-08-03 20:55:00,
2013-08-03 16:00:00,84.0,72.1,29.91,NNE,17,0.0,0.0,67,0.00,,,0.00,Custom v0.1,2013-08-03 21:00:00,
2013-08-03 16:05:00,84.3,72.4,29.91,North,353,0.0,0.0,67,0.00,,,0.00,Custom v0.1,2013-08-03 21:05:00,
2013-08-03 16:14:00,84.0,71.2,29.91,ENE,73,0.0,1.0,65,0.00,,,0.00,Custom v0.1,2013-08-03 21:14:00,
2013-08-03 16:20:00,83.4,71.6,29.91,East,101,1.0,1.0,67,0.00,,,0.00,Custom v0.1,2013-08-03 21:20:00,
2013-08-03 16:24:00,83.0,72.0,29.91,ENE,76,1.0,1.0,69,0.00,,,0.00,Custom v0.1,2013-08-03 21:24:00,
2013-08-03 16:30:00,83.0,72.0,29.91,East,90,3.0,3.0,69,0.00,,,0.00,Custom v0.1,2013-08-03 21:30:00,
2013-08-03 16:35:00,83.2,71.8,29.91,ENE,76,0.0,0.0,68,0.00,,,0.00,Custom v0.1,2013-08-03 21:35:00,
2013-08-03 16:40:00,83.2,72.2,29.91,East,83,0.0,0.0,69,0.00,,,0.00,Custom v0.1,2013-08-03 21:40:00,
2013-08-03 16:44:00,83.0,71.6,29.91,NE,53,0.0,0.0,68,0.00,,,0.00,Custom v0.1,2013-08-03 21:44:00,
2013-08-03 16:50:00,82.6,71.6,29.92,ENE,59,0.0,0.0,69,0.00,,,0.00,Custom v0.1,2013-08-03 21:50:00,
2013-08-03 16:55:00,83.0,71.6,29.92,ENE,63,0.0,0.0,68,0.00,,,0.00,Custom v0.1,2013-08-03 21:55:00,
2013-08-03 17:00:00,83.4,72.4,29.92,ENE,62,0.0,0.0,69,0.00,,,0.00,Custom v0.1,2013-08-03 22:00:00,
2013-08-03 17:05:00,83.4,72.0,29.91,ENE,72,0.0,1.0,68,0.00,,,0.00,Custom v0.1,2013-08-03 22:05:00,
2013-08-03 17:10:00,83.0,72.0,29.91,ENE,70,0.0,0.0,69,0.00,,,0.00,Custom v0.1,2013-08-03 22:10:00,
2013-08-03 17:15:00,83.0,72.9,29.91,East,97,0.0,0.0,71,0.00,,,0.00,Custom v0.1,2013-08-03 22:15:00,
2013-08-03 17:20:00,83.2,73.0,29.92,ENE,70,0.0,0.0,71,0.00,,,0.00,Custom v0.1,2013-08-03 22:20:00,
2013-08-03 17:25:00,83.2,72.2,29.92,NNE,28,0.0,3.0,69,0.00,,,0.00,Custom v0.1,2013-08-03 22:25:00,
2013-08-03 17:30:00,83.0,72.4,29.92,West,278,0.0,0.0,70,0.00,,,0.00,Custom v0.1,2013-08-03 22:30:00,
2013-08-03 17:40:00,82.0,72.3,29.91,East,89,0.0,0.0,72,0.00,,,0.00,Custom v0.1,2013-08-03 22:40:00,
2013-08-03 17:45:00,81.6,72.7,29.91,East,90,0.0,0.0,74,0.00,,,0.00,Custom v0.1,2013-08-03 22:45:00,
2013-08-03 17:50:00,81.4,72.1,29.91,East,83,0.0,0.0,73,0.00,,,0.00,Custom v0.1,2013-08-03 22:50:00,
2013-08-03 17:55:00,81.2,71.9,29.91,East,82,0.0,0.0,73,0.00,,,0.00,Custom v0.1,2013-08-03 22:55:00,
2013-08-03 18:05:00,81.1,71.8,29.91,East,89,0.0,0.0,73,0.00,,,0.00,Custom v0.1,2013-08-03 23:05:00,
2013-08-03 18:09:00,81.1,71.8,29.91,ENE,63,4.0,6.0,73,0.00,,,0.00,Custom v0.1,2013-08-03 23:09:00,
2013-08-03 18:15:00,81.1,71.4,29.91,East,92,1.0,5.0,72,0.00,,,0.00,Custom v0.1,2013-08-03 23:15:00,
2013-08-03 18:20:00,81.2,71.5,29.92,East,89,0.0,0.0,72,0.00,,,0.00,Custom v0.1,2013-08-03 23:20:00,
2013-08-03 18:25:00,81.4,70.9,29.92,ENE,70,5.0,5.0,70,0.00,,,0.00,Custom v0.1,2013-08-03 23:25:00,
2013-08-03 18:30:00,81.6,71.5,29.92,East,79,3.0,3.0,71,0.00,,,0.00,Custom v0.1,2013-08-03 23:30:00,
2013-08-03 18:35:00,81.4,71.3,29.91,East,89,0.0,0.0,71,0.00,,,0.00,Custom v0.1,2013-08-03 23:35:00,
2013-08-03 18:39:00,81.4,71.7,29.91,East,87,0.0,0.0,72,0.00,,,0.00,Custom v0.1,2013-08-03 23:39:00,
2013-08-03 18:45:00,81.4,71.3,29.91,East,83,0.0,0.0,71,0.00,,,0.00,Custom v0.1,2013-08-03 23:45:00,
2013-08-03 18:50:00,81.2,70.7,29.91,East,84,2.0,2.0,70,0.00,,,0.00,Custom v0.1,2013-08-03 23:50:00,
2013-08-03 18:55:00,81.2,70.7,29.91,East,86,0.0,0.0,70,0.00,,,0.00,Custom v0.1,2013-08-03 23:55:00,
2013-08-03 19:00:00,81.2,70.7,29.91,East,87,0.0,0.0,70,0.00,,,0.00,Custom v0.1,2013-08-04 00:00:00,
2013-08-03 19:05:00,81.1,70.2,29.91,East,87,0.0,0.0,69,0.00,,,0.00,Custom v0.1,2013-08-04 00:05:00,
2013-08-03 19:10:00,81.1,70.6,29.91,East,86,0.0,0.0,70,0.00,,,0.00,Custom v0.1,2013-08-04 00:10:00,
2013-08-03 19:15:00,80.9,70.4,29.91,East,86,0.0,0.0,70,0.00,,,0.00,Custom v0.1,2013-08-04 00:15:00,
2013-08-03 19:20:00,80.7,70.2,29.91,East,87,0.0,0.0,70,0.00,,,0.00,Custom v0.1,2013-08-04 00:20:00,
2013-08-03 19:25:00,80.7,70.6,29.91,East,87,0.0,0.0,71,0.00,,,0.00,Custom v0.1,2013-08-04 00:25:00,
2013-08-03 19:35:00,80.3,70.7,29.91,East,87,0.0,0.0,72,0.00,,,0.00,Custom v0.1,2013-08-04 00:35:00,
2013-08-03 19:40:00,80.3,70.7,29.91,East,87,0.0,0.0,72,0.00,,,0.00,Custom v0.1,2013-08-04 00:40:00,
2013-08-03 19:45:00,80.3,71.1,29.91,East,87,0.0,0.0,73,0.00,,,0.00,Custom v0.1,2013-08-04 00:45:00,
2013-08-03 19:50:00,80.1,71.3,29.91,East,87,0.0,0.0,74,0.00,,,0.00,Custom v0.1,2013-08-04 00:50:00,
2013-08-03 19:55:00,79.9,71.1,29.91,East,87,0.0,0.0,74,0.00,,,0.00,Custom v0.1,2013-08-04 00:55:00,
2013-08-03 20:00:00,79.6,71.2,29.91,East,87,0.0,0.0,75,0.00,,,0.00,Custom v0.1,2013-08-04 01:00:00,
2013-08-03 20:05:00,79.6,71.5,29.91,East,87,0.0,0.0,76,0.00,,,0.00,Custom v0.1,2013-08-04 01:05:00,
2013-08-03 20:10:00,79.4,71.3,29.91,East,87,0.0,0.0,76,0.00,,,0.00,Custom v0.1,2013-08-04 01:10:00,
2013-08-03 20:15:00,79.4,71.3,29.91,East,87,0.0,0.0,76,0.00,,,0.00,Custom v0.1,2013-08-04 01:15:00,
2013-08-03 20:19:00,79.0,71.3,29.92,East,87,0.0,0.0,77,0.00,,,0.00,Custom v0.1,2013-08-04 01:19:00,
2013-08-03 20:25:00,78.6,71.3,29.92,East,87,0.0,0.0,78,0.00,,,0.00,Custom v0.1,2013-08-04 01:25:00,
2013-08-03 20:29:00,77.9,71.3,29.92,East,87,0.0,0.0,80,0.00,,,0.00,Custom v0.1,2013-08-04 01:29:00,
2013-08-03 20:35:00,77.4,71.2,29.92,East,87,0.0,0.0,81,0.00,,,0.00,Custom v0.1,2013-08-04 01:35:00,
2013-08-03 20:45:00,76.5,71.0,29.92,East,87,0.0,0.0,83,0.00,,,0.00,Custom v0.1,2013-08-04 01:45:00,
2013-08-03 20:49:00,76.0,70.9,29.93,East,87,0.0,0.0,84,0.00,,,0.00,Custom v0.1,2013-08-04 01:49:00,
2013-08-03 20:55:00,75.6,70.8,29.93,East,87,0.0,0.0,85,0.00,,,0.00,Custom v0.1,2013-08-04 01:55:00,
2013-08-03 21:00:00,75.4,70.9,29.93,East,87,0.0,0.0,86,0.00,,,0.00,Custom v0.1,2013-08-04 02:00:00,
2013-08-03 21:04:00,75.3,70.8,29.93,East,87,0.0,0.0,86,0.00,,,0.00,Custom v0.1,2013-08-04 02:04:00,
2013-08-03 21:10:00,74.7,70.6,29.93,East,87,0.0,0.0,87,0.00,,,0.00,Custom v0.1,2013-08-04 02:10:00,
2013-08-03 21:15:00,74.4,70.6,29.93,East,87,0.0,0.0,88,0.00,,,0.00,Custom v0.1,2013-08-04 02:15:00,
2013-08-03 21:20:00,74.2,70.4,29.93,East,87,0.0,0.0,88,0.00,,,0.00,Custom v0.1,2013-08-04 02:20:00,
2013-08-03 21:24:00,74.0,70.5,29.93,East,87,0.0,0.0,89,0.00,,,0.00,Custom v0.1,2013-08-04 02:24:00,
2013-08-03 21:30:00,73.9,70.4,29.93,East,87,0.0,0.0,89,0.00,,,0.00,Custom v0.1,2013-08-04 02:30:00,
2013-08-03 21:34:00,73.7,70.6,29.93,East,87,0.0,0.0,90,0.00,,,0.00,Custom v0.1,2013-08-04 02:34:00,
2013-08-03 21:40:00,73.5,70.7,29.93,East,87,0.0,0.0,91,0.00,,,0.00,Custom v0.1,2013-08-04 02:40:00,
2013-08-03 21:45:00,73.3,70.5,29.93,East,87,0.0,0.0,91,0.00,,,0.00,Custom v0.1,2013-08-04 02:45:00,
2013-08-03 21:50:00,73.0,70.2,29.94,East,87,0.0,0.0,91,0.00,,,0.00,Custom v0.1,2013-08-04 02:50:00,
2013-08-03 21:55:00,73.0,70.5,29.94,East,87,0.0,0.0,92,0.00,,,0.00,Custom v0.1,2013-08-04 02:55:00,
2013-08-03 22:00:00,72.8,70.3,29.94,East,87,0.0,0.0,92,0.00,,,0.00,Custom v0.1,2013-08-04 03:00:00,
2013-08-03 22:05:00,72.8,70.3,29.95,East,87,0.0,0.0,92,0.00,,,0.00,Custom v0.1,2013-08-04 03:05:00,
2013-08-03 22:09:00,72.7,70.5,29.95,East,87,0.0,0.0,93,0.00,,,0.00,Custom v0.1,2013-08-04 03:09:00,
2013-08-03 22:14:00,72.5,70.3,29.95,East,87,0.0,0.0,93,0.00,,,0.00,Custom v0.1,2013-08-04 03:14:00,
2013-08-03 22:20:00,72.5,70.3,29.95,East,87,0.0,0.0,93,0.00,,,0.00,Custom v0.1,2013-08-04 03:20:00,
2013-08-03 22:25:00,72.7,70.8,29.95,East,87,0.0,0.0,94,0.00,,,0.00,Custom v0.1,2013-08-04 03:25:00,
2013-08-03 22:30:00,72.8,70.9,29.95,East,87,0.0,0.0,94,0.00,,,0.00,Custom v0.1,2013-08-04 03:30:00,
2013-08-03 22:34:00,72.7,70.5,29.96,East,87,0.0,0.0,93,0.00,,,0.00,Custom v0.1,2013-08-04 03:34:00,
2013-08-03 22:40:00,72.7,70.5,29.96,East,87,0.0,0.0,93,0.00,,,0.00,Custom v0.1,2013-08-04 03:40:00,
2013-08-03 22:45:00,72.5,70.3,29.96,East,87,0.0,0.0,93,0.00,,,0.00,Custom v0.1,2013-08-04 03:45:00,
2013-08-03 22:50:00,72.3,70.4,29.97,East,87,0.0,0.0,94,0.00,,,0.00,Custom v0.1,2013-08-04 03:50:00,
2013-08-03 22:55:00,72.3,70.4,29.97,East,87,0.0,0.0,94,0.00,,,0.00,Custom v0.1,2013-08-04 03:55:00,
2013-08-03 23:00:00,72.3,70.4,29.97,East,87,0.0,0.0,94,0.00,,,0.00,Custom v0.1,2013-08-04 04:00:00,
2013-08-03 23:04:00,72.3,70.4,29.97,East,87,0.0,0.0,94,0.00,,,0.00,Custom v0.1,2013-08-04 04:04:00,
2013-08-03 23:10:00,72.3,70.4,29.97,East,87,0.0,0.0,94,0.00,,,0.00,Custom v0.1,2013-08-04 04:10:00,
2013-08-03 23:15:00,72.5,71.0,29.97,East,87,0.0,0.0,95,0.00,,,0.00,Custom v0.1,2013-08-04 04:15:00,
2013-08-03 23:20:00,72.7,70.8,29.97,East,89,0.0,0.0,94,0.00,,,0.00,Custom v0.1,2013-08-04 04:20:00,
2013-08-03 23:25:00,72.8,70.6,29.97,East,87,0.0,0.0,93,0.00,,,0.00,Custom v0.1,2013-08-04 04:25:00,
2013-08-03 23:30:00,73.0,70.5,29.97,East,87,0.0,0.0,92,0.00,,,0.00,Custom v0.1,2013-08-04 04:30:00,
2013-08-03 23:34:00,73.3,70.5,29.97,East,87,0.0,0.0,91,0.00,,,0.00,Custom v0.1,2013-08-04 04:34:00,
2013-08-03 23:40:00,73.7,70.6,29.97,East,86,0.0,0.0,90,0.00,,,0.00,Custom v0.1,2013-08-04 04:40:00,
2013-08-03 23:44:00,73.7,70.3,29.97,East,86,0.0,0.0,89,0.00,,,0.00,Custom v0.1,2013-08-04 04:44:00,
2013-08-03 23:50:00,73.7,70.3,29.97,East,86,0.0,0.0,89,0.00,,,0.00,Custom v0.1,2013-08-04 04:50:00,
2013-08-03 23:55:00,73.7,69.9,29.97,East,79,0.0,0.0,88,0.00,,,0.00,Custom v0.1,2013-08-04 04:55:00,